SHMÚ vydal meteorologické výstrahy na Vietor na horáchSnehové jazyky a záveje Zobraziť výstrahy

Smogová situácia PM10 - Upozornenie - Jelšava a okolie » Zobraziť

TAF

Letisková predpoveď TAF

Informácie o správe TAF

19.01.2018 - 05:00 UTC

TAF LZIB 190500Z 1906/2006 28010KT CAVOK
    BECMG 1906/1908 24006KT 9999 SCT030 BKN070
    TEMPO 1908/1914 -RA FEW012 BKN030 OVC060
    TEMPO 1911/1919 30016G28KT
    BECMG 1914/1916 CAVOK
    BECMG 1920/1922 24004KT
    BECMG 2004/2006 -SN SCT030 BKN050=
TAF LZKZ 190500Z 1906/2006 23006KT CAVOK
    BECMG 1910/1912 9999 SCT030 BKN100
    BECMG 1916/1918 VRB02KT 4500 BR FEW005 BKN080
    BECMG 1918/1920 35004KT 6000 -SN SCT020 BKN030
    PROB30 TEMPO 1919/1923 2000 SN BR BKN009 OVC020
    BECMG 1922/2000 CAVOK=
TAF LZTT 190500Z 1906/2006 24014KT 9999 SCT013 SCT020 BKN056
    TEMPO 1906/1916 26018G32KT DRSN
    PROB30 TEMPO 1906/1908 3000 -SN BKN008 OVC025
    BECMG 1913/1915 3000 -SN SCT010 OVC030
    BECMG 1916/1918 23004KT
    TEMPO 1917/1921 1200 SN BKN005 OVC011
    TEMPO 1921/2006 2000 BR BKN008=

19.01.2018 - 05:00 UTC

TAF LZSL 190500Z 1906/1915 26009KT 9999 SCT045 BKN080
    BECMG 1907/1909 16004KT
    BECMG 1911/1913 4000 -SN SCT010 BKN030
    TEMPO 1912/1915 1200 SN BKN010=
TAF LZPP 190500Z 1906/1915 29010KT CAVOK
    BECMG 1906/1908 17005KT
    BECMG 1908/1910 9999 -RA SCT030 BKN070
    TEMPO 1911/1915 3000 SNRA BKN012 OVC030=
TAF LZZI 190500Z 1906/1915 26008KT 9999 FEW040 BKN055
    BECMG 1906/1908 22004KT
    TEMPO 1906/1915 -SN FEW020 BKN040
    PROB40 TEMPO 1911/1915 2500 SN SCT010 BKN030=

19.01.2018 - 02:00 UTC

TAF LZSL 190200Z 1903/1912 VRB02KT 1200 BR BKN008 OVC030
    TEMPO 1903/1907 0200 FZFG BKN002
    PROB30 1903/1907 25009KT 9999 SCT010 BKN030
    BECMG 1907/1909 16004KT 9999 SCT020 BKN070=
TAF LZZI 190200Z 1903/1912 26008KT 9999 FEW040 BKN055
    BECMG 1905/1907 22004KT=

skok na menu ↑


skok na začiatok stránky ↑